AUA251 LOWW-EDDH
Flight info
| Callsign | AUA251 |
|---|---|
| Flight time | 1h 19m |
| Altitude | 36000 |
| Route | LANUX DCT VLM DCT HDO DCT OSKAN M748 BOLBO DCT ESIKA DCT SOGMA M748 RARUP RARUP3P |
| Aircraft | A320/M-SDE3FGHIRWY/LB1 |
Departure
| Time | 2026-04-24 19:37 |
|---|---|
| Airport | Vienna International Airport (LOWW) |
Arrival
| Time | 2026-04-24 20:56 |
|---|---|
| Airport | Hamburg Helmut Schmidt Airport (EDDH) |
| Time | Latitude | Longitude | Altitude | Speed | Heading |
|---|---|---|---|---|---|
| 2026-04-24 18:56 | 48.11626 | 16.56501 | 609 ft | 0 kts | 206° |
| 2026-04-24 19:31 | 48.11610 | 16.56490 | 621 ft | 8 kts | 206° |
| 2026-04-24 19:32 | 48.11560 | 16.56495 | 615 ft | 7 kts | 140° |
| 2026-04-24 19:32 | 48.11513 | 16.56585 | 617 ft | 14 kts | 150° |
| 2026-04-24 19:32 | 48.11429 | 16.56617 | 622 ft | 12 kts | 145° |
| 2026-04-24 19:32 | 48.11383 | 16.56738 | 622 ft | 17 kts | 116° |
| 2026-04-24 19:33 | 48.11321 | 16.56929 | 614 ft | 22 kts | 115° |
| 2026-04-24 19:33 | 48.11276 | 16.57068 | 613 ft | 23 kts | 116° |
| 2026-04-24 19:33 | 48.11180 | 16.57366 | 621 ft | 25 kts | 116° |
| 2026-04-24 19:33 | 48.11113 | 16.57570 | 616 ft | 16 kts | 116° |
| 2026-04-24 19:34 | 48.11073 | 16.57643 | 610 ft | 0 kts | 157° |
| 2026-04-24 19:35 | 48.11029 | 16.57638 | 610 ft | 7 kts | 206° |
| 2026-04-24 19:35 | 48.11022 | 16.57633 | 620 ft | 0 kts | 207° |
| 2026-04-24 19:36 | 48.10972 | 16.57595 | 616 ft | 13 kts | 206° |
| 2026-04-24 19:36 | 48.10928 | 16.57503 | 610 ft | 11 kts | 277° |
| 2026-04-24 19:36 | 48.10954 | 16.57413 | 617 ft | 0 kts | 296° |
| 2026-04-24 19:36 | 48.10965 | 16.57381 | 617 ft | 14 kts | 296° |
| 2026-04-24 19:37 | 48.11124 | 16.56903 | 612 ft | 88 kts | 295° |
| 2026-04-24 19:37 | 48.11476 | 16.55814 | 618 ft | 145 kts | 296° |
| 2026-04-24 19:37 | 48.11966 | 16.54279 | 884 ft | 168 kts | 295° |
| 2026-04-24 19:37 | 48.12093 | 16.52582 | 1659 ft | 169 kts | 257° |
| 2026-04-24 19:38 | 48.11445 | 16.51054 | 2155 ft | 188 kts | 224° |
| 2026-04-24 19:38 | 48.10322 | 16.49815 | 2482 ft | 212 kts | 219° |
| 2026-04-24 19:38 | 48.09074 | 16.48523 | 3038 ft | 221 kts | 219° |
| 2026-04-24 19:38 | 48.07873 | 16.47124 | 3765 ft | 219 kts | 234° |
| 2026-04-24 19:39 | 48.07058 | 16.45160 | 4290 ft | 233 kts | 249° |
| 2026-04-24 19:39 | 48.06348 | 16.42855 | 4755 ft | 254 kts | 251° |
| 2026-04-24 19:39 | 48.05621 | 16.40402 | 5580 ft | 260 kts | 250° |
| 2026-04-24 19:39 | 48.04991 | 16.37864 | 6507 ft | 259 kts | 263° |
| 2026-04-24 19:40 | 48.05013 | 16.35202 | 7366 ft | 258 kts | 286° |
| 2026-04-24 19:40 | 48.05792 | 16.32806 | 8202 ft | 259 kts | 310° |
| 2026-04-24 19:40 | 48.07191 | 16.31105 | 9076 ft | 263 kts | 330° |
| 2026-04-24 19:40 | 48.08797 | 16.29766 | 9955 ft | 266 kts | 330° |
| 2026-04-24 19:41 | 48.10457 | 16.28391 | 10401 ft | 285 kts | 330° |
| 2026-04-24 19:41 | 48.12263 | 16.26893 | 10650 ft | 308 kts | 330° |
| 2026-04-24 19:41 | 48.14178 | 16.25297 | 11171 ft | 320 kts | 330° |
| 2026-04-24 19:41 | 48.16136 | 16.23657 | 11860 ft | 325 kts | 330° |
| 2026-04-24 19:42 | 48.18129 | 16.21982 | 12600 ft | 330 kts | 330° |
| 2026-04-24 19:42 | 48.20145 | 16.20285 | 13337 ft | 334 kts | 330° |
| 2026-04-24 19:42 | 48.22186 | 16.18565 | 14034 ft | 339 kts | 331° |
| 2026-04-24 19:42 | 48.24231 | 16.16846 | 14674 ft | 343 kts | 331° |
| 2026-04-24 19:43 | 48.26319 | 16.15090 | 15338 ft | 346 kts | 331° |
| 2026-04-24 19:43 | 48.28431 | 16.13311 | 15999 ft | 349 kts | 331° |
| 2026-04-24 19:43 | 48.30557 | 16.11516 | 16664 ft | 352 kts | 330° |
| 2026-04-24 19:43 | 48.32698 | 16.09703 | 17315 ft | 355 kts | 330° |
| 2026-04-24 19:44 | 48.34859 | 16.07868 | 17959 ft | 358 kts | 330° |
| 2026-04-24 19:44 | 48.37036 | 16.06018 | 18561 ft | 361 kts | 330° |
| 2026-04-24 19:44 | 48.39243 | 16.04143 | 19115 ft | 365 kts | 330° |
| 2026-04-24 19:44 | 48.41435 | 16.02282 | 19659 ft | 368 kts | 330° |
| 2026-04-24 19:45 | 48.43675 | 16.00376 | 20218 ft | 371 kts | 330° |
| 2026-04-24 19:45 | 48.45936 | 15.98452 | 20780 ft | 374 kts | 330° |
| 2026-04-24 19:45 | 48.48213 | 15.96507 | 21330 ft | 378 kts | 330° |
| 2026-04-24 19:45 | 48.50511 | 15.94543 | 21870 ft | 381 kts | 330° |
| 2026-04-24 19:46 | 48.52832 | 15.92561 | 22399 ft | 384 kts | 330° |
| 2026-04-24 19:46 | 48.55168 | 15.90566 | 22924 ft | 387 kts | 330° |
| 2026-04-24 19:46 | 48.57526 | 15.88551 | 23436 ft | 390 kts | 330° |
| 2026-04-24 19:46 | 48.59868 | 15.86547 | 23878 ft | 393 kts | 330° |
| 2026-04-24 19:47 | 48.62252 | 15.84503 | 24298 ft | 395 kts | 330° |
| 2026-04-24 19:47 | 48.64652 | 15.82440 | 24732 ft | 397 kts | 330° |
| 2026-04-24 19:47 | 48.67066 | 15.80364 | 25137 ft | 399 kts | 330° |
| 2026-04-24 19:47 | 48.69489 | 15.78277 | 25537 ft | 401 kts | 330° |
| 2026-04-24 19:48 | 48.71924 | 15.76183 | 25932 ft | 403 kts | 330° |
| 2026-04-24 19:48 | 48.74373 | 15.74075 | 26328 ft | 405 kts | 330° |
| 2026-04-24 19:48 | 48.79295 | 15.69820 | 27100 ft | 409 kts | 330° |
| 2026-04-24 19:49 | 48.84237 | 15.65528 | 27823 ft | 413 kts | 330° |
| 2026-04-24 19:49 | 48.89297 | 15.61250 | 28523 ft | 417 kts | 334° |
| 2026-04-24 19:50 | 48.97339 | 15.55940 | 29500 ft | 423 kts | 335° |
| 2026-04-24 19:50 | 49.00053 | 15.54145 | 29808 ft | 425 kts | 335° |
| 2026-04-24 19:51 | 49.04461 | 15.51216 | 30261 ft | 428 kts | 335° |
| 2026-04-24 19:51 | 49.06741 | 15.49703 | 30473 ft | 429 kts | 335° |
| 2026-04-24 19:52 | 49.12221 | 15.46048 | 30973 ft | 430 kts | 335° |
| 2026-04-24 19:52 | 49.14964 | 15.44216 | 31323 ft | 428 kts | 335° |
| 2026-04-24 19:52 | 49.17685 | 15.42396 | 31649 ft | 427 kts | 335° |
| 2026-04-24 19:52 | 49.20404 | 15.40572 | 31981 ft | 425 kts | 335° |
| 2026-04-24 19:53 | 49.23112 | 15.38752 | 32320 ft | 424 kts | 335° |
| 2026-04-24 19:53 | 49.25812 | 15.36936 | 32643 ft | 423 kts | 335° |
| 2026-04-24 19:53 | 49.31159 | 15.33350 | 33303 ft | 420 kts | 334° |
| 2026-04-24 19:54 | 49.33833 | 15.31550 | 33629 ft | 419 kts | 334° |
| 2026-04-24 19:54 | 49.36503 | 15.29745 | 33950 ft | 418 kts | 334° |
| 2026-04-24 19:54 | 49.39163 | 15.27947 | 34258 ft | 417 kts | 334° |
| 2026-04-24 19:54 | 49.41818 | 15.26156 | 34544 ft | 416 kts | 334° |
| 2026-04-24 19:55 | 49.43574 | 15.24968 | 34730 ft | 415 kts | 334° |
| 2026-04-24 19:55 | 49.47104 | 15.22577 | 35041 ft | 414 kts | 334° |
| 2026-04-24 19:55 | 49.49744 | 15.20788 | 35096 ft | 413 kts | 334° |
| 2026-04-24 19:56 | 49.54973 | 15.17237 | 35089 ft | 417 kts | 334° |
| 2026-04-24 19:56 | 49.60345 | 15.13569 | 35096 ft | 426 kts | 334° |
| 2026-04-24 19:57 | 49.65804 | 15.09847 | 35099 ft | 432 kts | 334° |
| 2026-04-24 19:57 | 49.71333 | 15.06096 | 35099 ft | 434 kts | 335° |
| 2026-04-24 19:58 | 49.76953 | 15.02799 | 35101 ft | 435 kts | 338° |
| 2026-04-24 19:58 | 49.82686 | 14.99769 | 35102 ft | 435 kts | 338° |
| 2026-04-24 19:59 | 49.88403 | 14.96689 | 35106 ft | 435 kts | 338° |
| 2026-04-24 19:59 | 49.94096 | 14.93499 | 35105 ft | 435 kts | 337° |
| 2026-04-24 20:00 | 49.99784 | 14.90274 | 35105 ft | 435 kts | 337° |
| 2026-04-24 20:00 | 50.05468 | 14.87060 | 35114 ft | 434 kts | 337° |
| 2026-04-24 20:01 | 50.11116 | 14.83873 | 35120 ft | 434 kts | 337° |
| 2026-04-24 20:01 | 50.16813 | 14.80655 | 35126 ft | 434 kts | 337° |
| 2026-04-24 20:02 | 50.21536 | 14.77985 | 35128 ft | 434 kts | 336° |
| 2026-04-24 20:02 | 50.28144 | 14.74238 | 35114 ft | 434 kts | 336° |
| 2026-04-24 20:03 | 50.33816 | 14.71006 | 35113 ft | 434 kts | 336° |
| 2026-04-24 20:03 | 50.39492 | 14.67760 | 35123 ft | 434 kts | 336° |
| 2026-04-24 20:04 | 50.45166 | 14.64510 | 35123 ft | 434 kts | 336° |
| 2026-04-24 20:04 | 50.50840 | 14.61252 | 35119 ft | 434 kts | 336° |
| 2026-04-24 20:05 | 50.56507 | 14.57995 | 35124 ft | 433 kts | 336° |
| 2026-04-24 20:05 | 50.62178 | 14.54719 | 35132 ft | 433 kts | 336° |
| 2026-04-24 20:06 | 50.67793 | 14.51452 | 35133 ft | 433 kts | 335° |
| 2026-04-24 20:06 | 50.73458 | 14.48163 | 35127 ft | 433 kts | 335° |
| 2026-04-24 20:07 | 50.78172 | 14.45429 | 35127 ft | 434 kts | 335° |
| 2026-04-24 20:07 | 50.84790 | 14.41560 | 35133 ft | 433 kts | 335° |
| 2026-04-24 20:08 | 50.90442 | 14.38236 | 35132 ft | 432 kts | 333° |
| 2026-04-24 20:08 | 50.95452 | 14.33261 | 35130 ft | 423 kts | 316° |
| 2026-04-24 20:09 | 50.99868 | 14.27166 | 35131 ft | 423 kts | 316° |
| 2026-04-24 20:09 | 51.04319 | 14.21057 | 35128 ft | 423 kts | 316° |
| 2026-04-24 20:10 | 51.08771 | 14.14932 | 35126 ft | 422 kts | 316° |
| 2026-04-24 20:10 | 51.13214 | 14.08791 | 35125 ft | 422 kts | 316° |
| 2026-04-24 20:11 | 51.17621 | 14.02661 | 35124 ft | 422 kts | 316° |
| 2026-04-24 20:11 | 51.22051 | 13.96484 | 35119 ft | 422 kts | 316° |
| 2026-04-24 20:12 | 51.26478 | 13.90316 | 35116 ft | 422 kts | 316° |
| 2026-04-24 20:12 | 51.30898 | 13.84142 | 35109 ft | 421 kts | 316° |
| 2026-04-24 20:13 | 51.35270 | 13.78005 | 35105 ft | 421 kts | 315° |
| 2026-04-24 20:13 | 51.39686 | 13.71798 | 35108 ft | 422 kts | 315° |
| 2026-04-24 20:14 | 51.44159 | 13.65689 | 35111 ft | 422 kts | 316° |
| 2026-04-24 20:14 | 51.48676 | 13.59664 | 35109 ft | 423 kts | 317° |
| 2026-04-24 20:15 | 51.53210 | 13.53612 | 35115 ft | 423 kts | 316° |
| 2026-04-24 20:15 | 51.57685 | 13.47563 | 35113 ft | 423 kts | 316° |
| 2026-04-24 20:16 | 51.62178 | 13.41462 | 35116 ft | 423 kts | 316° |
| 2026-04-24 20:16 | 51.66677 | 13.35351 | 35118 ft | 423 kts | 316° |
| 2026-04-24 20:17 | 51.71183 | 13.29223 | 35119 ft | 423 kts | 316° |
| 2026-04-24 20:17 | 51.77903 | 13.20044 | 35123 ft | 423 kts | 316° |
| 2026-04-24 20:18 | 51.82388 | 13.13893 | 35127 ft | 423 kts | 316° |
| 2026-04-24 20:18 | 51.86878 | 13.07721 | 35125 ft | 423 kts | 316° |
| 2026-04-24 20:19 | 51.91364 | 13.01544 | 35120 ft | 423 kts | 316° |
| 2026-04-24 20:19 | 51.95819 | 12.95386 | 35122 ft | 423 kts | 316° |
| 2026-04-24 20:20 | 52.00292 | 12.89183 | 35115 ft | 423 kts | 316° |
| 2026-04-24 20:20 | 52.04778 | 12.82950 | 35117 ft | 424 kts | 316° |
| 2026-04-24 20:21 | 52.09251 | 12.76711 | 35115 ft | 424 kts | 316° |
| 2026-04-24 20:21 | 52.12982 | 12.71497 | 35115 ft | 424 kts | 316° |
| 2026-04-24 20:22 | 52.18229 | 12.64294 | 35115 ft | 425 kts | 317° |
| 2026-04-24 20:22 | 52.22137 | 12.59274 | 35111 ft | 426 kts | 319° |
| 2026-04-24 20:23 | 52.26800 | 12.53376 | 35110 ft | 426 kts | 319° |
| 2026-04-24 20:23 | 52.31474 | 12.47366 | 35114 ft | 427 kts | 318° |
| 2026-04-24 20:24 | 52.36119 | 12.41302 | 35114 ft | 427 kts | 318° |
| 2026-04-24 20:24 | 52.40731 | 12.35255 | 35113 ft | 427 kts | 317° |
| 2026-04-24 20:25 | 52.45376 | 12.29170 | 35116 ft | 428 kts | 317° |
| 2026-04-24 20:25 | 52.50034 | 12.23074 | 35116 ft | 428 kts | 317° |
| 2026-04-24 20:26 | 52.54686 | 12.16963 | 35106 ft | 422 kts | 317° |
| 2026-04-24 20:26 | 52.56938 | 12.13999 | 34906 ft | 410 kts | 317° |
| 2026-04-24 20:26 | 52.59156 | 12.11077 | 34675 ft | 406 kts | 317° |
| 2026-04-24 20:27 | 52.61359 | 12.08168 | 34429 ft | 404 kts | 317° |
| 2026-04-24 20:27 | 52.63549 | 12.05269 | 34194 ft | 404 kts | 317° |
| 2026-04-24 20:27 | 52.65709 | 12.02399 | 33943 ft | 404 kts | 317° |
| 2026-04-24 20:27 | 52.67901 | 11.99484 | 33666 ft | 405 kts | 317° |
| 2026-04-24 20:28 | 52.70100 | 11.96561 | 33392 ft | 406 kts | 317° |
| 2026-04-24 20:28 | 52.72301 | 11.93628 | 33113 ft | 407 kts | 317° |
| 2026-04-24 20:28 | 52.74503 | 11.90690 | 32863 ft | 407 kts | 317° |
| 2026-04-24 20:28 | 52.76713 | 11.87737 | 32607 ft | 408 kts | 317° |
| 2026-04-24 20:29 | 52.78174 | 11.85782 | 32432 ft | 409 kts | 317° |
| 2026-04-24 20:29 | 52.81140 | 11.81812 | 32082 ft | 410 kts | 317° |
| 2026-04-24 20:29 | 52.83359 | 11.78841 | 31525 ft | 409 kts | 317° |
| 2026-04-24 20:29 | 52.85557 | 11.75899 | 30948 ft | 403 kts | 317° |
| 2026-04-24 20:30 | 52.87723 | 11.72995 | 30378 ft | 399 kts | 317° |
| 2026-04-24 20:30 | 52.89843 | 11.70149 | 29762 ft | 395 kts | 317° |
| 2026-04-24 20:30 | 52.91961 | 11.67300 | 29205 ft | 389 kts | 317° |
| 2026-04-24 20:30 | 52.94048 | 11.64489 | 28664 ft | 384 kts | 317° |
| 2026-04-24 20:31 | 52.96110 | 11.61701 | 28118 ft | 379 kts | 317° |
| 2026-04-24 20:31 | 52.98141 | 11.58945 | 27585 ft | 375 kts | 317° |
| 2026-04-24 20:31 | 53.00153 | 11.56216 | 27058 ft | 371 kts | 317° |
| 2026-04-24 20:31 | 53.02148 | 11.53510 | 26542 ft | 368 kts | 317° |
| 2026-04-24 20:32 | 53.04128 | 11.50820 | 26022 ft | 365 kts | 317° |
| 2026-04-24 20:32 | 53.06090 | 11.48150 | 25526 ft | 363 kts | 317° |
| 2026-04-24 20:32 | 53.08016 | 11.45531 | 25036 ft | 360 kts | 317° |
| 2026-04-24 20:32 | 53.09949 | 11.42900 | 24559 ft | 358 kts | 318° |
| 2026-04-24 20:33 | 53.11873 | 11.40282 | 24082 ft | 356 kts | 318° |
| 2026-04-24 20:33 | 53.13782 | 11.37681 | 23622 ft | 353 kts | 318° |
| 2026-04-24 20:33 | 53.15676 | 11.35094 | 23130 ft | 350 kts | 318° |
| 2026-04-24 20:33 | 53.17540 | 11.32538 | 22704 ft | 345 kts | 318° |
| 2026-04-24 20:34 | 53.19385 | 11.30004 | 22283 ft | 340 kts | 318° |
| 2026-04-24 20:34 | 53.21200 | 11.27511 | 21870 ft | 338 kts | 318° |
| 2026-04-24 20:34 | 53.23014 | 11.25023 | 21472 ft | 335 kts | 318° |
| 2026-04-24 20:34 | 53.24811 | 11.22556 | 21053 ft | 333 kts | 319° |
| 2026-04-24 20:35 | 53.26603 | 11.20092 | 20629 ft | 332 kts | 319° |
| 2026-04-24 20:35 | 53.28356 | 11.17675 | 20207 ft | 330 kts | 319° |
| 2026-04-24 20:35 | 53.30124 | 11.15236 | 19789 ft | 328 kts | 319° |
| 2026-04-24 20:35 | 53.31883 | 11.12809 | 19360 ft | 327 kts | 319° |
| 2026-04-24 20:36 | 53.33524 | 11.10086 | 18938 ft | 339 kts | 304° |
| 2026-04-24 20:36 | 53.34505 | 11.06512 | 18408 ft | 341 kts | 284° |
| 2026-04-24 20:36 | 53.34613 | 11.02553 | 17820 ft | 344 kts | 266° |
| 2026-04-24 20:36 | 53.34313 | 10.98577 | 17289 ft | 343 kts | 265° |
| 2026-04-24 20:37 | 53.33982 | 10.94678 | 16799 ft | 341 kts | 265° |
| 2026-04-24 20:37 | 53.33642 | 10.90761 | 16330 ft | 339 kts | 265° |
| 2026-04-24 20:37 | 53.33295 | 10.86874 | 15879 ft | 336 kts | 264° |
| 2026-04-24 20:37 | 53.32946 | 10.83019 | 15452 ft | 334 kts | 264° |
| 2026-04-24 20:38 | 53.32599 | 10.79251 | 15306 ft | 322 kts | 264° |
| 2026-04-24 20:38 | 53.32256 | 10.75606 | 15178 ft | 311 kts | 264° |
| 2026-04-24 20:38 | 53.31919 | 10.72093 | 15054 ft | 300 kts | 264° |
| 2026-04-24 20:38 | 53.31589 | 10.68692 | 14858 ft | 293 kts | 264° |
| 2026-04-24 20:39 | 53.31260 | 10.65342 | 14560 ft | 291 kts | 264° |
| 2026-04-24 20:39 | 53.30930 | 10.62016 | 14230 ft | 289 kts | 264° |
| 2026-04-24 20:39 | 53.30596 | 10.58708 | 13907 ft | 288 kts | 264° |
| 2026-04-24 20:39 | 53.30260 | 10.55412 | 13539 ft | 286 kts | 264° |
| 2026-04-24 20:40 | 53.29935 | 10.52179 | 13168 ft | 285 kts | 266° |
| 2026-04-24 20:40 | 53.29877 | 10.48906 | 12793 ft | 280 kts | 274° |
| 2026-04-24 20:40 | 53.29929 | 10.45656 | 12417 ft | 278 kts | 281° |
| 2026-04-24 20:40 | 53.30568 | 10.42704 | 12061 ft | 269 kts | 306° |
| 2026-04-24 20:41 | 53.31778 | 10.40318 | 11678 ft | 268 kts | 314° |
| 2026-04-24 20:41 | 53.33061 | 10.38062 | 11308 ft | 267 kts | 314° |
| 2026-04-24 20:41 | 53.34343 | 10.35820 | 10958 ft | 266 kts | 314° |
| 2026-04-24 20:41 | 53.35618 | 10.33583 | 10605 ft | 264 kts | 314° |
| 2026-04-24 20:42 | 53.36882 | 10.31355 | 10255 ft | 263 kts | 314° |
| 2026-04-24 20:42 | 53.38133 | 10.29135 | 9883 ft | 261 kts | 314° |
| 2026-04-24 20:42 | 53.39379 | 10.26920 | 9482 ft | 260 kts | 314° |
| 2026-04-24 20:42 | 53.40618 | 10.24717 | 9080 ft | 259 kts | 314° |
| 2026-04-24 20:43 | 53.41838 | 10.22550 | 8680 ft | 258 kts | 314° |
| 2026-04-24 20:43 | 53.43069 | 10.20363 | 8274 ft | 257 kts | 314° |
| 2026-04-24 20:43 | 53.44295 | 10.18187 | 7860 ft | 256 kts | 314° |
| 2026-04-24 20:43 | 53.45514 | 10.16026 | 7459 ft | 254 kts | 314° |
| 2026-04-24 20:44 | 53.46728 | 10.13875 | 7164 ft | 252 kts | 314° |
| 2026-04-24 20:44 | 53.47946 | 10.11722 | 7135 ft | 254 kts | 314° |
| 2026-04-24 20:44 | 53.49153 | 10.09588 | 7141 ft | 255 kts | 314° |
| 2026-04-24 20:44 | 53.50377 | 10.07426 | 7138 ft | 255 kts | 314° |
| 2026-04-24 20:45 | 53.51600 | 10.05263 | 7142 ft | 255 kts | 314° |
| 2026-04-24 20:45 | 53.52825 | 10.03096 | 7138 ft | 255 kts | 314° |
| 2026-04-24 20:45 | 53.54055 | 10.00953 | 7130 ft | 255 kts | 319° |
| 2026-04-24 20:45 | 53.55597 | 9.99547 | 7142 ft | 255 kts | 346° |
| 2026-04-24 20:46 | 53.57371 | 9.99613 | 7144 ft | 262 kts | 13° |
| 2026-04-24 20:46 | 53.58965 | 10.01137 | 6968 ft | 269 kts | 39° |
| 2026-04-24 20:46 | 53.60019 | 10.03775 | 6541 ft | 276 kts | 61° |
| 2026-04-24 20:46 | 53.60744 | 10.06742 | 6088 ft | 278 kts | 64° |
| 2026-04-24 20:47 | 53.61447 | 10.09810 | 5662 ft | 276 kts | 64° |
| 2026-04-24 20:47 | 53.62122 | 10.12788 | 5267 ft | 275 kts | 64° |
| 2026-04-24 20:47 | 53.62798 | 10.15788 | 5128 ft | 273 kts | 64° |
| 2026-04-24 20:47 | 53.63477 | 10.18792 | 5135 ft | 275 kts | 64° |
| 2026-04-24 20:48 | 53.64156 | 10.21815 | 5136 ft | 275 kts | 64° |
| 2026-04-24 20:48 | 53.64835 | 10.24834 | 5137 ft | 275 kts | 64° |
| 2026-04-24 20:48 | 53.65529 | 10.27835 | 5133 ft | 274 kts | 60° |
| 2026-04-24 20:48 | 53.66510 | 10.30558 | 5133 ft | 270 kts | 50° |
| 2026-04-24 20:49 | 53.67587 | 10.33152 | 5132 ft | 269 kts | 50° |
| 2026-04-24 20:49 | 53.68675 | 10.35733 | 5132 ft | 270 kts | 49° |
| 2026-04-24 20:49 | 53.69759 | 10.38300 | 5112 ft | 264 kts | 49° |
| 2026-04-24 20:49 | 53.70949 | 10.40388 | 5113 ft | 236 kts | 25° |
| 2026-04-24 20:50 | 53.72436 | 10.41094 | 5117 ft | 218 kts | 354° |
| 2026-04-24 20:50 | 53.73928 | 10.40738 | 5114 ft | 216 kts | 346° |
| 2026-04-24 20:50 | 53.75385 | 10.40145 | 4958 ft | 213 kts | 336° |
| 2026-04-24 20:50 | 53.76513 | 10.38619 | 4603 ft | 211 kts | 303° |
| 2026-04-24 20:51 | 53.76899 | 10.36231 | 4259 ft | 218 kts | 273° |
| 2026-04-24 20:51 | 53.76717 | 10.33663 | 3905 ft | 221 kts | 265° |
| 2026-04-24 20:51 | 53.76434 | 10.31108 | 3649 ft | 218 kts | 265° |
| 2026-04-24 20:51 | 53.76139 | 10.28645 | 3521 ft | 209 kts | 264° |
| 2026-04-24 20:52 | 53.75844 | 10.26282 | 3372 ft | 202 kts | 264° |
| 2026-04-24 20:52 | 53.75398 | 10.24060 | 3124 ft | 208 kts | 243° |
| 2026-04-24 20:52 | 53.74485 | 10.22126 | 3004 ft | 212 kts | 237° |
| 2026-04-24 20:52 | 53.73541 | 10.20204 | 3003 ft | 213 kts | 237° |
| 2026-04-24 20:53 | 53.72605 | 10.18295 | 2872 ft | 209 kts | 237° |
| 2026-04-24 20:53 | 53.71682 | 10.16413 | 2630 ft | 206 kts | 237° |
| 2026-04-24 20:53 | 53.70779 | 10.14571 | 2375 ft | 201 kts | 236° |
| 2026-04-24 20:53 | 53.69905 | 10.12791 | 2091 ft | 192 kts | 237° |
| 2026-04-24 20:54 | 53.69081 | 10.11116 | 1832 ft | 178 kts | 237° |
| 2026-04-24 20:54 | 53.68312 | 10.09551 | 1587 ft | 168 kts | 237° |
| 2026-04-24 20:54 | 53.67609 | 10.08123 | 1370 ft | 150 kts | 237° |
| 2026-04-24 20:54 | 53.66974 | 10.06832 | 1161 ft | 136 kts | 238° |
| 2026-04-24 20:55 | 53.66396 | 10.05640 | 942 ft | 130 kts | 238° |
| 2026-04-24 20:55 | 53.65846 | 10.04471 | 748 ft | 128 kts | 237° |
| 2026-04-24 20:55 | 53.65262 | 10.03326 | 605 ft | 128 kts | 236° |
| 2026-04-24 20:55 | 53.64692 | 10.02178 | 424 ft | 127 kts | 234° |
| 2026-04-24 20:56 | 53.64126 | 10.01034 | 249 ft | 127 kts | 234° |
| 2026-04-24 20:56 | 53.63568 | 9.99902 | 100 ft | 124 kts | 236° |
| 2026-04-24 20:56 | 53.63046 | 9.98854 | 47 ft | 104 kts | 231° |
| 2026-04-24 20:56 | 53.62746 | 9.98232 | 43 ft | 41 kts | 231° |
| 2026-04-24 20:57 | 53.62575 | 9.97889 | 41 ft | 31 kts | 229° |
| 2026-04-24 20:57 | 53.62458 | 9.97803 | 42 ft | 17 kts | 154° |
| 2026-04-24 20:57 | 53.62434 | 9.97970 | 47 ft | 18 kts | 79° |
| 2026-04-24 20:57 | 53.62492 | 9.98151 | 47 ft | 17 kts | 50° |
| 2026-04-24 20:58 | 53.62567 | 9.98300 | 47 ft | 16 kts | 50° |
| 2026-04-24 20:58 | 53.62636 | 9.98440 | 47 ft | 15 kts | 51° |
| 2026-04-24 20:58 | 53.62717 | 9.98605 | 47 ft | 20 kts | 50° |
| 2026-04-24 20:58 | 53.62803 | 9.98779 | 47 ft | 19 kts | 50° |
| 2026-04-24 20:59 | 53.62885 | 9.98942 | 47 ft | 18 kts | 49° |
| 2026-04-24 20:59 | 53.62962 | 9.99092 | 47 ft | 16 kts | 49° |
| 2026-04-24 20:59 | 53.63028 | 9.99236 | 47 ft | 15 kts | 52° |
| 2026-04-24 20:59 | 53.63094 | 9.99394 | 45 ft | 22 kts | 56° |
| 2026-04-24 21:00 | 53.63203 | 9.99633 | 48 ft | 26 kts | 50° |
| 2026-04-24 21:00 | 53.63329 | 9.99861 | 48 ft | 23 kts | 49° |
| 2026-04-24 21:00 | 53.63407 | 10.00018 | 48 ft | 17 kts | 50° |
| 2026-04-24 21:00 | 53.63437 | 10.00174 | 47 ft | 15 kts | 117° |
| 2026-04-24 21:01 | 53.63364 | 10.00229 | 48 ft | 6 kts | 175° |
| 2026-04-24 21:01 | 53.63330 | 10.00249 | 48 ft | 4 kts | 129° |
| 2026-04-24 21:01 | 53.63328 | 10.00287 | 48 ft | 4 kts | 85° |
| 2026-04-24 21:01 | 53.63332 | 10.00371 | 48 ft | 1 kts | 89° |
| 2026-04-24 21:02 | 53.63332 | 10.00369 | 48 ft | 0 kts | 89° |
| 2026-04-24 21:02 | 53.63332 | 10.00363 | 48 ft | 1 kts | 89° |
| 2026-04-24 21:02 | 53.63332 | 10.00354 | 48 ft | 0 kts | 89° |